createdAt,value
2022-10-07T00:01:02.492Z,6.30
2022-10-07T00:03:30.949Z,6.80
2022-10-07T00:06:05.166Z,6.23
2022-10-07T00:08:33.120Z,6.80
2022-10-07T00:11:05.982Z,6.40
2022-10-07T00:13:34.188Z,5.20
2022-10-07T00:16:07.196Z,5.43
2022-10-07T00:18:35.868Z,5.90
2022-10-07T00:21:06.794Z,5.47
2022-10-07T00:23:35.039Z,5.43
2022-10-07T00:26:03.571Z,6.80
2022-10-07T00:28:31.503Z,5.53
2022-10-07T00:30:59.724Z,6.53
2022-10-07T00:33:27.815Z,6.53
2022-10-07T00:35:55.485Z,5.37
2022-10-07T00:38:24.575Z,5.83
2022-10-07T00:40:52.297Z,9.43
2022-10-07T00:43:21.870Z,9.37
2022-10-07T00:45:50.263Z,8.30
2022-10-07T00:48:24.779Z,9.70
2022-10-07T00:50:55.000Z,6.70
2022-10-07T00:53:27.030Z,6.93
2022-10-07T00:55:56.087Z,6.37
2022-10-07T00:58:26.792Z,6.00
2022-10-07T01:00:55.148Z,5.77
2022-10-07T01:03:22.949Z,5.50
2022-10-07T01:05:50.635Z,5.77
2022-10-07T01:08:18.598Z,4.93
2022-10-07T01:10:59.437Z,5.30
2022-10-07T01:13:33.651Z,5.60
2022-10-07T01:16:11.085Z,5.33
2022-10-07T01:18:45.772Z,5.70
2022-10-07T01:21:26.067Z,5.13
2022-10-07T01:24:05.712Z,4.80
2022-10-07T01:26:52.366Z,5.40
2022-10-07T01:29:25.368Z,5.93
2022-10-07T01:31:58.397Z,5.10
2022-10-07T01:34:27.608Z,4.80
2022-10-07T01:36:58.799Z,4.10
2022-10-07T01:39:31.412Z,4.63
2022-10-07T01:42:01.124Z,4.07
2022-10-07T01:44:31.220Z,3.70
2022-10-07T01:46:59.680Z,4.23
2022-10-07T01:49:27.584Z,5.40
2022-10-07T01:52:12.179Z,10.97
2022-10-07T01:54:54.159Z,8.17
2022-10-07T01:57:36.769Z,5.47
2022-10-07T02:00:10.067Z,5.50
2022-10-07T02:02:54.389Z,5.13
2022-10-07T02:05:31.680Z,4.30
2022-10-07T02:08:13.189Z,5.10
2022-10-07T02:10:53.759Z,5.20
2022-10-07T02:13:31.268Z,5.17
2022-10-07T02:16:05.852Z,5.00
2022-10-07T02:18:36.737Z,5.50
2022-10-07T02:21:07.877Z,4.53
2022-10-07T02:23:38.663Z,4.80
2022-10-07T02:26:08.492Z,4.40
2022-10-07T02:28:41.622Z,5.23
2022-10-07T02:31:14.860Z,5.33
2022-10-07T02:33:43.176Z,5.20
2022-10-07T02:36:16.720Z,5.63
2022-10-07T02:38:45.075Z,5.30
2022-10-07T02:41:31.238Z,5.43
2022-10-07T02:44:09.643Z,5.57
2022-10-07T02:46:43.709Z,8.30
2022-10-07T02:49:15.581Z,5.23
2022-10-07T02:51:48.283Z,5.30
2022-10-07T02:54:20.356Z,5.00
2022-10-07T02:56:50.066Z,9.60
2022-10-07T02:59:21.280Z,7.23
2022-10-07T03:01:55.021Z,6.67
2022-10-07T03:04:23.695Z,5.13
2022-10-07T03:06:52.277Z,5.00
2022-10-07T03:09:20.292Z,6.70
2022-10-07T03:11:48.009Z,9.90
2022-10-07T03:14:15.741Z,4.77
2022-10-07T03:16:44.854Z,4.40
2022-10-07T03:19:12.540Z,7.57
2022-10-07T03:21:41.334Z,6.93
2022-10-07T03:24:09.038Z,26.50
2022-10-07T03:26:36.837Z,20.23
2022-10-07T03:29:05.515Z,7.57
2022-10-07T03:31:33.335Z,6.80
2022-10-07T03:34:02.490Z,11.20
2022-10-07T03:36:30.875Z,6.17
2022-10-07T03:38:58.810Z,11.43
2022-10-07T03:41:27.242Z,21.63
2022-10-07T03:43:58.478Z,21.93
2022-10-07T03:46:26.282Z,21.27
2022-10-07T03:48:54.027Z,16.40
2022-10-07T03:51:23.816Z,6.80
2022-10-07T03:53:54.576Z,10.87
2022-10-07T03:56:22.260Z,16.37
2022-10-07T03:58:50.151Z,12.13
2022-10-07T04:01:17.968Z,8.73
2022-10-07T04:03:46.073Z,5.33
2022-10-07T04:06:13.928Z,5.20
2022-10-07T04:08:43.655Z,5.07
2022-10-07T04:11:12.708Z,11.27
2022-10-07T04:13:40.596Z,6.47
2022-10-07T04:16:09.459Z,15.27
2022-10-07T04:18:37.498Z,12.87
2022-10-07T04:21:05.790Z,9.53
2022-10-07T04:23:33.475Z,17.40
2022-10-07T04:26:02.653Z,19.60
2022-10-07T04:28:30.436Z,17.17
2022-10-07T04:30:58.195Z,14.73
2022-10-07T04:33:26.319Z,23.67
2022-10-07T04:35:54.013Z,35.10
2022-10-07T04:38:24.293Z,32.40
2022-10-07T04:40:55.334Z,21.30
2022-10-07T04:43:24.467Z,10.27
2022-10-07T04:45:54.532Z,13.07
2022-10-07T04:48:28.245Z,25.87
2022-10-07T04:50:56.383Z,9.07
2022-10-07T04:53:24.055Z,6.57
2022-10-07T04:55:52.513Z,6.40
2022-10-07T04:58:20.906Z,10.47
2022-10-07T05:00:52.409Z,6.90
2022-10-07T05:03:22.817Z,14.43
2022-10-07T05:05:53.368Z,8.73
2022-10-07T05:08:24.406Z,6.23
2022-10-07T05:10:55.755Z,8.23
2022-10-07T05:13:26.081Z,10.83
2022-10-07T05:15:57.639Z,11.73
2022-10-07T05:18:27.513Z,8.07
2022-10-07T05:20:55.336Z,11.17
2022-10-07T05:23:28.998Z,8.03
2022-10-07T05:26:01.414Z,10.63
2022-10-07T05:28:29.444Z,9.00
2022-10-07T05:31:07.384Z,8.63
2022-10-07T05:33:35.954Z,9.90
2022-10-07T05:36:03.805Z,10.00
2022-10-07T05:38:31.610Z,8.43
2022-10-07T05:41:00.416Z,6.47
2022-10-07T05:43:28.458Z,7.63
2022-10-07T05:46:01.632Z,8.73
2022-10-07T05:48:36.617Z,7.97
2022-10-07T05:51:07.623Z,5.87
2022-10-07T05:53:35.897Z,6.23
2022-10-07T05:56:06.584Z,5.50
2022-10-07T05:58:35.820Z,7.43
2022-10-07T06:01:11.472Z,5.47
2022-10-07T06:03:43.581Z,6.90
2022-10-07T06:06:11.821Z,7.80
2022-10-07T06:08:39.542Z,6.30
2022-10-07T06:11:26.234Z,8.03
2022-10-07T06:13:55.787Z,6.50
2022-10-07T06:16:24.681Z,6.10
2022-10-07T06:18:54.878Z,6.43
2022-10-07T06:21:27.578Z,8.10
2022-10-07T06:23:56.541Z,10.20
2022-10-07T06:26:24.279Z,7.97
2022-10-07T06:28:52.184Z,8.33
2022-10-07T06:31:22.596Z,8.37
2022-10-07T06:33:50.520Z,11.30
2022-10-07T06:36:20.262Z,6.77
2022-10-07T06:38:49.645Z,7.33
2022-10-07T06:41:18.281Z,6.80
2022-10-07T06:43:47.356Z,8.87
2022-10-07T06:46:17.320Z,7.77
2022-10-07T06:48:46.693Z,6.57
2022-10-07T06:51:16.098Z,8.97
2022-10-07T06:53:46.281Z,8.50
2022-10-07T06:56:15.256Z,8.90
2022-10-07T06:58:43.744Z,8.33
2022-10-07T07:01:12.223Z,8.00
2022-10-07T07:03:40.451Z,8.83
2022-10-07T07:06:09.060Z,7.47
2022-10-07T07:08:36.999Z,8.30
2022-10-07T07:11:29.020Z,6.47
2022-10-07T07:13:56.817Z,7.03
2022-10-07T07:16:25.259Z,6.57
2022-10-07T07:18:53.935Z,8.57
2022-10-07T07:21:22.617Z,7.80
2022-10-07T07:23:51.171Z,7.90
2022-10-07T07:26:21.329Z,7.27
2022-10-07T07:28:53.008Z,5.23
2022-10-07T07:31:21.018Z,5.77
2022-10-07T07:33:52.523Z,6.40
2022-10-07T07:36:22.552Z,5.30
2022-10-07T07:38:53.143Z,7.43
2022-10-07T07:41:24.029Z,6.50
2022-10-07T07:43:53.118Z,4.73
2022-10-07T07:46:22.170Z,6.30
2022-10-07T07:48:52.389Z,4.23
2022-10-07T07:51:20.472Z,4.50
2022-10-07T07:53:50.299Z,4.47
2022-10-07T07:56:18.264Z,4.43
2022-10-07T07:58:47.622Z,4.67
2022-10-07T08:01:17.826Z,4.30
2022-10-07T08:03:47.360Z,4.20
2022-10-07T08:06:17.333Z,4.53
2022-10-07T08:08:45.064Z,4.70
2022-10-07T08:11:15.080Z,4.20
2022-10-07T08:13:42.961Z,4.13
2022-10-07T08:16:14.369Z,5.03
2022-10-07T08:18:42.652Z,4.77
2022-10-07T08:21:10.630Z,7.30
2022-10-07T08:23:38.967Z,4.90
2022-10-07T08:26:07.797Z,3.40
2022-10-07T08:28:36.491Z,4.57
2022-10-07T08:31:05.499Z,3.13
2022-10-07T08:33:36.771Z,3.10
2022-10-07T08:36:06.512Z,4.87
2022-10-07T08:38:36.841Z,3.47
2022-10-07T08:41:18.278Z,3.00
2022-10-07T08:43:49.180Z,3.10
2022-10-07T08:46:19.780Z,4.40
2022-10-07T08:48:53.914Z,3.23
2022-10-07T08:51:25.402Z,3.60
2022-10-07T08:53:59.365Z,2.83
2022-10-07T08:56:30.241Z,2.93
2022-10-07T08:59:10.868Z,3.30
2022-10-07T09:01:51.623Z,3.57
2022-10-07T09:04:33.114Z,3.97
2022-10-07T09:07:04.711Z,3.43
2022-10-07T09:09:37.125Z,3.47
2022-10-07T09:12:09.867Z,3.90
2022-10-07T09:14:40.286Z,3.47
2022-10-07T09:17:13.108Z,3.60
2022-10-07T09:19:46.215Z,3.67
2022-10-07T09:22:21.571Z,4.80
2022-10-07T09:24:55.547Z,4.63
2022-10-07T09:27:26.800Z,3.73
2022-10-07T09:29:54.560Z,3.30
2022-10-07T09:32:22.653Z,4.88
2022-10-07T09:34:52.269Z,3.08
2022-10-07T09:37:22.013Z,3.42
2022-10-07T09:39:51.404Z,3.60
2022-10-07T09:42:32.551Z,3.00
2022-10-07T09:45:02.985Z,3.08
2022-10-07T09:47:36.198Z,4.20
2022-10-07T09:50:05.749Z,5.13
2022-10-07T09:52:33.644Z,3.28
2022-10-07T09:55:37.431Z,4.68
2022-10-07T09:58:07.189Z,5.88
2022-10-07T10:00:44.494Z,4.22
2022-10-07T10:03:13.126Z,4.88
2022-10-07T10:05:53.288Z,4.57
2022-10-07T10:08:24.848Z,5.80
2022-10-07T10:10:54.603Z,4.18
2022-10-07T10:13:32.898Z,4.22
2022-10-07T10:16:01.927Z,3.67
2022-10-07T10:18:36.112Z,4.50
2022-10-07T10:21:27.369Z,3.95
2022-10-07T10:23:56.855Z,4.65
2022-10-07T10:26:57.153Z,4.55
2022-10-07T10:29:37.660Z,4.55
2022-10-07T10:32:46.241Z,4.43
2022-10-07T10:35:17.145Z,5.13
2022-10-07T10:37:59.653Z,5.25
2022-10-07T10:40:34.630Z,5.00
2022-10-07T10:43:17.562Z,3.25
2022-10-07T10:45:59.743Z,3.40
2022-10-07T10:48:36.228Z,3.60
2022-10-07T10:51:17.549Z,3.70
2022-10-07T10:53:56.702Z,3.00
2022-10-07T10:56:33.485Z,3.95
2022-10-07T10:59:15.021Z,3.53
2022-10-07T11:01:46.250Z,3.05
2022-10-07T11:04:40.325Z,2.97
2022-10-07T11:07:16.160Z,3.78
2022-10-07T11:09:50.319Z,4.07
2022-10-07T11:12:29.348Z,2.75
2022-10-07T11:15:08.082Z,6.15
2022-10-07T11:17:37.581Z,4.70
2022-10-07T11:20:16.335Z,3.22
2022-10-07T11:22:52.605Z,2.83
2022-10-07T11:25:29.592Z,4.90
2022-10-07T11:28:07.183Z,2.78
2022-10-07T11:30:46.115Z,5.25
2022-10-07T11:33:24.004Z,2.93
2022-10-07T11:35:57.533Z,3.92
2022-10-07T11:38:31.304Z,5.00
2022-10-07T11:41:04.135Z,3.88
2022-10-07T11:43:38.162Z,4.47
2022-10-07T11:46:11.897Z,2.78
2022-10-07T11:48:44.074Z,2.55
2022-10-07T11:51:22.697Z,3.22
2022-10-07T11:53:55.409Z,4.00
2022-10-07T11:56:26.814Z,2.63
2022-10-07T11:59:00.795Z,4.53
2022-10-07T12:01:41.005Z,3.78
2022-10-07T12:04:38.157Z,3.13
2022-10-07T12:07:34.922Z,2.60
2022-10-07T12:10:23.280Z,2.87
2022-10-07T12:12:55.208Z,3.03
2022-10-07T12:15:30.039Z,4.53
2022-10-07T12:18:26.092Z,6.53
2022-10-07T12:21:06.064Z,4.47
2022-10-07T12:23:41.707Z,5.20
2022-10-07T12:26:48.651Z,5.73
2022-10-07T12:29:53.338Z,4.17
2022-10-07T12:32:56.191Z,6.57
2022-10-07T12:35:57.532Z,3.83
2022-10-07T12:38:27.624Z,4.97
2022-10-07T12:41:04.279Z,4.23
2022-10-07T12:43:48.773Z,3.63
2022-10-07T12:46:21.368Z,4.00
2022-10-07T12:49:01.024Z,2.97
2022-10-07T12:51:34.521Z,2.87
2022-10-07T12:54:03.594Z,5.40
2022-10-07T12:56:31.642Z,6.00
2022-10-07T12:59:41.001Z,5.63
2022-10-07T13:02:49.163Z,5.47
2022-10-07T13:05:51.611Z,7.67
2022-10-07T13:09:04.017Z,5.00
2022-10-07T13:12:01.712Z,5.43
2022-10-07T13:14:36.244Z,6.07
2022-10-07T13:17:20.938Z,5.70
2022-10-07T13:19:58.197Z,4.30
2022-10-07T13:22:27.392Z,7.40
2022-10-07T13:24:57.451Z,4.23
2022-10-07T13:27:29.984Z,3.90
2022-10-07T13:29:59.667Z,4.30
2022-10-07T13:32:30.287Z,4.37
2022-10-07T13:35:01.254Z,4.20
2022-10-07T13:37:31.405Z,4.03
2022-10-07T13:40:19.306Z,3.03
2022-10-07T13:42:53.821Z,2.90
2022-10-07T13:45:21.660Z,4.17
2022-10-07T13:47:50.310Z,3.17
2022-10-07T13:50:26.036Z,2.77
2022-10-07T13:52:55.873Z,4.23
2022-10-07T13:55:29.520Z,5.50
2022-10-07T13:58:00.741Z,2.50
2022-10-07T14:00:29.660Z,2.93
2022-10-07T14:02:57.375Z,5.00
2022-10-07T14:05:27.784Z,4.50
2022-10-07T14:07:58.093Z,4.30
2022-10-07T14:10:28.173Z,3.87
2022-10-07T14:12:58.695Z,7.17
2022-10-07T14:15:29.397Z,3.50
2022-10-07T14:17:59.070Z,2.73
2022-10-07T14:20:31.081Z,7.20
2022-10-07T14:23:01.558Z,4.83
2022-10-07T14:25:31.687Z,6.37
2022-10-07T14:28:15.837Z,6.23
2022-10-07T14:31:02.327Z,4.07
2022-10-07T14:33:54.973Z,3.57
2022-10-07T14:36:24.332Z,3.33
2022-10-07T14:38:54.999Z,3.60
2022-10-07T14:41:24.404Z,7.83
2022-10-07T14:43:52.997Z,4.07
2022-10-07T14:46:23.410Z,4.43
2022-10-07T14:48:52.328Z,3.63
2022-10-07T14:51:22.953Z,4.63
2022-10-07T14:53:54.707Z,4.93
2022-10-07T14:56:26.484Z,3.67
2022-10-07T14:58:56.351Z,3.93
2022-10-07T15:01:24.256Z,4.97
2022-10-07T15:03:52.817Z,5.30
2022-10-07T15:06:21.084Z,6.60
2022-10-07T15:08:49.624Z,4.17
2022-10-07T15:11:20.671Z,4.10
2022-10-07T15:13:50.322Z,4.77
2022-10-07T15:16:20.551Z,6.60
2022-10-07T15:18:52.503Z,5.93
2022-10-07T15:21:21.701Z,4.30
2022-10-07T15:23:52.060Z,5.87
2022-10-07T15:26:24.161Z,3.80
2022-10-07T15:28:55.157Z,4.50
2022-10-07T15:31:24.841Z,6.67
2022-10-07T15:33:57.034Z,5.77
2022-10-07T15:36:25.274Z,6.70
2022-10-07T15:38:52.982Z,6.23
2022-10-07T15:41:33.969Z,6.37
2022-10-07T15:44:03.375Z,7.60
2022-10-07T15:46:32.162Z,4.80
2022-10-07T15:49:00.340Z,5.30
2022-10-07T15:51:29.429Z,6.33
2022-10-07T15:53:57.837Z,5.10
2022-10-07T15:56:26.440Z,7.27
2022-10-07T15:58:55.817Z,5.70
2022-10-07T16:01:26.433Z,5.13
2022-10-07T16:03:54.192Z,4.03
2022-10-07T16:06:23.858Z,6.97
2022-10-07T16:08:52.706Z,4.37
2022-10-07T16:11:20.769Z,5.03
2022-10-07T16:13:49.512Z,6.27
2022-10-07T16:16:20.646Z,4.47
2022-10-07T16:18:50.744Z,3.90
2022-10-07T16:21:21.662Z,4.40
2022-10-07T16:23:51.335Z,5.57
2022-10-07T16:26:21.384Z,5.40
2022-10-07T16:29:08.659Z,5.37
2022-10-07T16:31:40.229Z,5.87
2022-10-07T16:34:09.405Z,5.63
2022-10-07T16:36:40.997Z,6.27
2022-10-07T16:39:11.425Z,5.10
2022-10-07T16:41:41.489Z,5.73
2022-10-07T16:44:09.450Z,6.80
2022-10-07T16:46:38.978Z,5.33
2022-10-07T16:49:07.752Z,6.13
2022-10-07T16:51:37.812Z,4.50
2022-10-07T16:54:07.678Z,6.67
2022-10-07T16:56:36.856Z,6.57
2022-10-07T16:59:07.331Z,6.03
2022-10-07T17:01:35.039Z,7.43
2022-10-07T17:04:04.186Z,7.33
2022-10-07T17:06:32.763Z,7.03
2022-10-07T17:09:03.017Z,8.13
2022-10-07T17:11:33.394Z,7.10
2022-10-07T17:14:02.560Z,4.23
2022-10-07T17:16:33.622Z,7.57
2022-10-07T17:19:01.683Z,6.67
2022-10-07T17:21:30.703Z,4.87
2022-10-07T17:23:59.184Z,4.60
2022-10-07T17:26:27.967Z,6.57
2022-10-07T17:29:00.709Z,7.23
2022-10-07T17:31:28.875Z,8.17
2022-10-07T17:33:56.897Z,8.10
2022-10-07T17:36:24.620Z,6.37
2022-10-07T17:38:53.906Z,5.53
2022-10-07T17:41:25.995Z,5.97
2022-10-07T17:43:55.776Z,6.33
2022-10-07T17:46:25.726Z,7.40
2022-10-07T17:48:55.149Z,7.20
2022-10-07T17:51:24.414Z,8.57
2022-10-07T17:53:53.518Z,7.27
2022-10-07T17:56:22.863Z,7.80
2022-10-07T17:58:51.253Z,7.27
2022-10-07T18:01:22.576Z,5.93
2022-10-07T18:03:52.134Z,9.93
2022-10-07T18:06:20.412Z,9.03
2022-10-07T18:08:48.979Z,6.07
2022-10-07T18:11:18.155Z,8.20
2022-10-07T18:14:03.665Z,9.07
2022-10-07T18:16:33.366Z,7.37
2022-10-07T18:19:01.835Z,6.53
2022-10-07T18:21:32.153Z,6.67
2022-10-07T18:23:59.840Z,6.00
2022-10-07T18:26:29.687Z,11.03
2022-10-07T18:28:58.122Z,6.30
2022-10-07T18:31:26.994Z,8.57
2022-10-07T18:33:54.712Z,8.00
2022-10-07T18:36:22.409Z,7.87
2022-10-07T18:38:50.079Z,10.83
2022-10-07T18:41:18.882Z,8.60
2022-10-07T18:43:48.126Z,10.37
2022-10-07T18:46:18.788Z,7.47
2022-10-07T18:48:48.740Z,7.80
2022-10-07T18:51:17.995Z,8.50
2022-10-07T18:53:47.544Z,6.83
2022-10-07T18:56:17.124Z,8.47
2022-10-07T18:58:48.662Z,9.83
2022-10-07T19:01:18.950Z,35.10
2022-10-07T19:03:48.824Z,31.00
2022-10-07T19:06:20.358Z,19.27
2022-10-07T19:08:48.716Z,16.93
2022-10-07T19:11:20.427Z,17.93
2022-10-07T19:13:51.952Z,11.03
2022-10-07T19:16:22.059Z,14.03
2022-10-07T19:18:51.973Z,10.60
2022-10-07T19:21:20.737Z,11.40
2022-10-07T19:23:49.372Z,9.93
2022-10-07T19:26:21.300Z,9.73
2022-10-07T19:28:52.232Z,12.00
2022-10-07T19:31:23.237Z,14.10
2022-10-07T19:33:53.295Z,12.27
2022-10-07T19:36:21.903Z,17.90
2022-10-07T19:38:52.507Z,13.60
2022-10-07T19:41:22.201Z,14.80
2022-10-07T19:43:51.757Z,14.17
2022-10-07T19:46:20.941Z,9.23
2022-10-07T19:48:48.730Z,10.80
2022-10-07T19:51:19.070Z,10.03
2022-10-07T19:53:47.547Z,9.73
2022-10-07T19:56:22.496Z,9.40
2022-10-07T19:58:53.518Z,9.80
2022-10-07T20:01:23.043Z,11.73
2022-10-07T20:03:57.229Z,9.57
2022-10-07T20:06:25.297Z,11.30
2022-10-07T20:08:53.557Z,9.63
2022-10-07T20:11:21.964Z,9.90
2022-10-07T20:13:51.811Z,10.83
2022-10-07T20:16:22.135Z,11.77
2022-10-07T20:18:51.636Z,10.83
2022-10-07T20:21:24.002Z,11.23
2022-10-07T20:23:53.781Z,11.07
2022-10-07T20:26:24.201Z,11.63
2022-10-07T20:28:55.087Z,11.37
2022-10-07T20:31:25.138Z,10.73
2022-10-07T20:33:55.106Z,10.47
2022-10-07T20:36:24.743Z,11.03
2022-10-07T20:39:13.087Z,11.17
2022-10-07T20:41:58.421Z,12.80
2022-10-07T20:44:27.823Z,11.07
2022-10-07T20:46:55.809Z,12.93
2022-10-07T20:49:24.270Z,12.53
2022-10-07T20:51:52.665Z,10.00
2022-10-07T20:54:21.733Z,11.67
2022-10-07T20:56:50.581Z,11.30
2022-10-07T20:59:18.306Z,11.53
2022-10-07T21:01:48.006Z,12.60
2022-10-07T21:04:16.749Z,11.77
2022-10-07T21:06:44.599Z,12.17
2022-10-07T21:09:14.696Z,12.90
2022-10-07T21:11:42.408Z,12.37
2022-10-07T21:14:11.975Z,19.20
2022-10-07T21:16:40.197Z,11.40
2022-10-07T21:19:09.498Z,10.87
2022-10-07T21:21:37.215Z,10.73
2022-10-07T21:24:06.348Z,11.07
2022-10-07T21:26:34.180Z,10.73
2022-10-07T21:29:02.276Z,11.03
2022-10-07T21:31:31.330Z,11.10
2022-10-07T21:34:01.625Z,10.67
2022-10-07T21:36:31.195Z,10.80
2022-10-07T21:38:59.965Z,11.30
2022-10-07T21:41:31.053Z,10.97
2022-10-07T21:43:59.683Z,10.90
2022-10-07T21:46:29.345Z,10.50
2022-10-07T21:48:57.867Z,10.07
2022-10-07T21:51:26.958Z,10.27
2022-10-07T21:53:58.060Z,10.17
2022-10-07T21:56:27.089Z,9.47
2022-10-07T21:58:54.921Z,10.47
2022-10-07T22:01:25.112Z,9.67
2022-10-07T22:03:55.917Z,9.23
2022-10-07T22:06:44.761Z,20.17
2022-10-07T22:09:14.614Z,18.93
2022-10-07T22:11:43.063Z,11.40
2022-10-07T22:14:13.135Z,11.23
2022-10-07T22:16:41.228Z,12.37
2022-10-07T22:19:09.295Z,13.23
2022-10-07T22:21:40.151Z,14.10
2022-10-07T22:24:09.725Z,12.40
2022-10-07T22:26:42.105Z,13.33
2022-10-07T22:29:11.280Z,12.10
2022-10-07T22:31:39.710Z,12.07
2022-10-07T22:34:08.371Z,12.03
2022-10-07T22:36:36.801Z,11.70
2022-10-07T22:39:05.344Z,11.57
2022-10-07T22:41:33.060Z,11.37
2022-10-07T22:44:02.084Z,12.10
2022-10-07T22:46:29.902Z,11.23
2022-10-07T22:48:58.621Z,10.93
2022-10-07T22:51:28.464Z,11.07
2022-10-07T22:53:57.812Z,10.30
2022-10-07T22:56:30.116Z,11.10
2022-10-07T22:58:59.839Z,10.10
2022-10-07T23:01:31.290Z,10.40
2022-10-07T23:04:02.261Z,9.63
2022-10-07T23:06:32.284Z,10.53
2022-10-07T23:09:00.340Z,14.07
2022-10-07T23:11:29.707Z,12.83
2022-10-07T23:13:57.831Z,13.23
2022-10-07T23:16:29.404Z,12.50
2022-10-07T23:18:57.433Z,12.60
2022-10-07T23:21:26.775Z,10.97
2022-10-07T23:24:06.021Z,10.80
2022-10-07T23:26:34.885Z,9.43
2022-10-07T23:29:02.783Z,9.10
2022-10-07T23:31:33.229Z,9.33
2022-10-07T23:34:02.259Z,10.63
2022-10-07T23:36:30.779Z,12.60
2022-10-07T23:39:00.291Z,9.27
2022-10-07T23:41:31.175Z,7.70
2022-10-07T23:44:01.887Z,10.53
2022-10-07T23:46:33.906Z,7.87
2022-10-07T23:49:01.980Z,7.67
2022-10-07T23:51:32.116Z,12.67
2022-10-07T23:54:01.706Z,9.17
2022-10-07T23:56:29.585Z,8.77
2022-10-07T23:58:57.349Z,8.30
